sensor_id;sensor_type;location;lat;lon;timestamp;temperature;humidity
46752;DHT22;32497;48.936;9.270;2022-09-02T00:02:34;14.90;73.90
46752;DHT22;32497;48.936;9.270;2022-09-02T00:07:36;14.90;73.80
46752;DHT22;32497;48.936;9.270;2022-09-02T00:12:37;14.80;73.50
46752;DHT22;32497;48.936;9.270;2022-09-02T00:17:38;14.60;74.10
46752;DHT22;32497;48.936;9.270;2022-09-02T00:22:41;14.60;73.50
46752;DHT22;32497;48.936;9.270;2022-09-02T00:27:42;14.50;74.10
46752;DHT22;32497;48.936;9.270;2022-09-02T00:32:43;14.50;73.50
46752;DHT22;32497;48.936;9.270;2022-09-02T00:37:45;14.60;73.30
46752;DHT22;32497;48.936;9.270;2022-09-02T00:42:46;14.70;72.50
46752;DHT22;32497;48.936;9.270;2022-09-02T00:47:47;14.70;72.80
46752;DHT22;32497;48.936;9.270;2022-09-02T00:52:52;14.60;72.80
46752;DHT22;32497;48.936;9.270;2022-09-02T00:57:58;14.40;73.20
46752;DHT22;32497;48.936;9.270;2022-09-02T01:03:04;14.30;73.40
46752;DHT22;32497;48.936;9.270;2022-09-02T01:08:07;14.40;73.00
46752;DHT22;32497;48.936;9.270;2022-09-02T01:13:11;14.40;72.90
46752;DHT22;32497;48.936;9.270;2022-09-02T01:18:16;14.40;72.70
46752;DHT22;32497;48.936;9.270;2022-09-02T01:23:19;14.30;72.40
46752;DHT22;32497;48.936;9.270;2022-09-02T01:28:20;14.20;73.10
46752;DHT22;32497;48.936;9.270;2022-09-02T01:33:22;14.10;73.80
46752;DHT22;32497;48.936;9.270;2022-09-02T01:38:25;14.00;74.30
46752;DHT22;32497;48.936;9.270;2022-09-02T01:43:27;13.90;75.00
46752;DHT22;32497;48.936;9.270;2022-09-02T01:48:29;13.70;75.00
46752;DHT22;32497;48.936;9.270;2022-09-02T01:53:31;13.50;75.80
46752;DHT22;32497;48.936;9.270;2022-09-02T01:58:33;13.50;76.40
46752;DHT22;32497;48.936;9.270;2022-09-02T02:03:35;13.50;76.20
46752;DHT22;32497;48.936;9.270;2022-09-02T02:08:38;13.40;75.90
46752;DHT22;32497;48.936;9.270;2022-09-02T02:13:40;13.30;76.40
46752;DHT22;32497;48.936;9.270;2022-09-02T02:18:41;13.40;76.40
46752;DHT22;32497;48.936;9.270;2022-09-02T02:23:44;13.30;76.80
46752;DHT22;32497;48.936;9.270;2022-09-02T02:28:45;13.20;76.60
46752;DHT22;32497;48.936;9.270;2022-09-02T02:33:46;13.10;76.80
46752;DHT22;32497;48.936;9.270;2022-09-02T02:38:48;13.10;76.80
46752;DHT22;32497;48.936;9.270;2022-09-02T02:43:49;13.10;77.20
46752;DHT22;32497;48.936;9.270;2022-09-02T02:48:50;13.00;76.80
46752;DHT22;32497;48.936;9.270;2022-09-02T02:53:53;13.10;76.80
46752;DHT22;32497;48.936;9.270;2022-09-02T02:58:54;13.00;76.40
46752;DHT22;32497;48.936;9.270;2022-09-02T03:03:55;12.90;76.70
46752;DHT22;32497;48.936;9.270;2022-09-02T03:08:58;12.90;76.60
46752;DHT22;32497;48.936;9.270;2022-09-02T03:14:00;12.90;77.10
46752;DHT22;32497;48.936;9.270;2022-09-02T03:19:02;12.90;76.70
46752;DHT22;32497;48.936;9.270;2022-09-02T03:24:07;12.90;76.70
46752;DHT22;32497;48.936;9.270;2022-09-02T03:29:08;12.90;76.90
46752;DHT22;32497;48.936;9.270;2022-09-02T03:34:10;12.80;77.40
46752;DHT22;32497;48.936;9.270;2022-09-02T03:39:12;12.80;77.20
46752;DHT22;32497;48.936;9.270;2022-09-02T03:44:16;12.80;77.20
46752;DHT22;32497;48.936;9.270;2022-09-02T03:49:19;12.70;77.40
46752;DHT22;32497;48.936;9.270;2022-09-02T03:54:21;12.60;77.60
46752;DHT22;32497;48.936;9.270;2022-09-02T03:59:23;12.60;77.70
46752;DHT22;32497;48.936;9.270;2022-09-02T04:04:25;12.60;78.10
46752;DHT22;32497;48.936;9.270;2022-09-02T04:09:28;12.50;78.00
46752;DHT22;32497;48.936;9.270;2022-09-02T04:14:30;12.40;78.30
46752;DHT22;32497;48.936;9.270;2022-09-02T04:25:30;12.40;78.60
46752;DHT22;32497;48.936;9.270;2022-09-02T04:30:31;12.30;78.80
46752;DHT22;32497;48.936;9.270;2022-09-02T04:35:32;12.20;79.20
46752;DHT22;32497;48.936;9.270;2022-09-02T04:40:38;12.10;78.80
46752;DHT22;32497;48.936;9.270;2022-09-02T04:45:40;12.10;79.20
46752;DHT22;32497;48.936;9.270;2022-09-02T04:50:42;12.20;78.70
46752;DHT22;32497;48.936;9.270;2022-09-02T04:55:45;12.20;78.60
46752;DHT22;32497;48.936;9.270;2022-09-02T05:00:48;12.10;78.80
46752;DHT22;32497;48.936;9.270;2022-09-02T05:05:57;12.20;79.40
46752;DHT22;32497;48.936;9.270;2022-09-02T05:11:00;12.30;79.00
46752;DHT22;32497;48.936;9.270;2022-09-02T05:16:02;12.40;77.90
46752;DHT22;32497;48.936;9.270;2022-09-02T05:21:04;12.40;78.30
46752;DHT22;32497;48.936;9.270;2022-09-02T05:26:08;12.40;77.80
46752;DHT22;32497;48.936;9.270;2022-09-02T05:31:12;12.60;78.10
46752;DHT22;32497;48.936;9.270;2022-09-02T05:36:16;12.70;78.00
46752;DHT22;32497;48.936;9.270;2022-09-02T05:41:21;12.70;77.60
46752;DHT22;32497;48.936;9.270;2022-09-02T05:46:24;12.60;77.50
46752;DHT22;32497;48.936;9.270;2022-09-02T05:51:26;12.60;77.40
46752;DHT22;32497;48.936;9.270;2022-09-02T05:56:30;12.70;77.00
46752;DHT22;32497;48.936;9.270;2022-09-02T06:01:31;12.80;76.90
46752;DHT22;32497;48.936;9.270;2022-09-02T06:06:34;12.80;77.30
46752;DHT22;32497;48.936;9.270;2022-09-02T06:11:39;12.90;77.70
46752;DHT22;32497;48.936;9.270;2022-09-02T06:16:45;13.20;77.80
46752;DHT22;32497;48.936;9.270;2022-09-02T06:21:55;13.40;78.10
46752;DHT22;32497;48.936;9.270;2022-09-02T06:27:00;13.70;77.10
46752;DHT22;32497;48.936;9.270;2022-09-02T06:32:03;13.90;77.00
46752;DHT22;32497;48.936;9.270;2022-09-02T06:37:04;14.20;75.60
46752;DHT22;32497;48.936;9.270;2022-09-02T06:42:09;14.60;75.00
46752;DHT22;32497;48.936;9.270;2022-09-02T06:47:19;14.90;73.50
46752;DHT22;32497;48.936;9.270;2022-09-02T06:52:20;15.20;72.10
46752;DHT22;32497;48.936;9.270;2022-09-02T06:57:24;15.50;70.60
46752;DHT22;32497;48.936;9.270;2022-09-02T07:02:25;15.80;70.30
46752;DHT22;32497;48.936;9.270;2022-09-02T07:07:26;16.10;69.40
46752;DHT22;32497;48.936;9.270;2022-09-02T07:12:38;16.30;68.60
46752;DHT22;32497;48.936;9.270;2022-09-02T07:17:43;16.50;67.00
46752;DHT22;32497;48.936;9.270;2022-09-02T07:23:04;16.70;67.00
46752;DHT22;32497;48.936;9.270;2022-09-02T07:28:09;16.70;66.30
46752;DHT22;32497;48.936;9.270;2022-09-02T07:33:11;17.00;65.80
46752;DHT22;32497;48.936;9.270;2022-09-02T07:38:13;17.20;64.50
46752;DHT22;32497;48.936;9.270;2022-09-02T07:43:16;17.40;62.90
46752;DHT22;32497;48.936;9.270;2022-09-02T07:48:18;17.50;63.60
46752;DHT22;32497;48.936;9.270;2022-09-02T07:53:21;17.80;61.70
46752;DHT22;32497;48.936;9.270;2022-09-02T07:58:24;18.00;61.90
46752;DHT22;32497;48.936;9.270;2022-09-02T08:03:26;18.20;60.60
46752;DHT22;32497;48.936;9.270;2022-09-02T08:08:30;18.50;59.70
46752;DHT22;32497;48.936;9.270;2022-09-02T08:13:33;18.70;58.10
46752;DHT22;32497;48.936;9.270;2022-09-02T08:18:35;18.80;57.20
46752;DHT22;32497;48.936;9.270;2022-09-02T08:23:36;19.00;55.20
46752;DHT22;32497;48.936;9.270;2022-09-02T08:28:38;19.20;55.60
46752;DHT22;32497;48.936;9.270;2022-09-02T08:33:39;19.50;54.10
46752;DHT22;32497;48.936;9.270;2022-09-02T08:38:41;19.60;54.50
46752;DHT22;32497;48.936;9.270;2022-09-02T08:43:43;19.90;52.70
46752;DHT22;32497;48.936;9.270;2022-09-02T08:48:49;20.20;51.80
46752;DHT22;32497;48.936;9.270;2022-09-02T08:53:55;20.40;49.60
46752;DHT22;32497;48.936;9.270;2022-09-02T08:58:59;20.70;50.30
46752;DHT22;32497;48.936;9.270;2022-09-02T09:04:16;20.80;48.80
46752;DHT22;32497;48.936;9.270;2022-09-02T09:09:25;21.00;47.50
46752;DHT22;32497;48.936;9.270;2022-09-02T09:14:34;21.00;45.90
46752;DHT22;32497;48.936;9.270;2022-09-02T09:19:46;21.10;45.80
46752;DHT22;32497;48.936;9.270;2022-09-02T09:24:48;21.50;44.70
46752;DHT22;32497;48.936;9.270;2022-09-02T09:29:51;21.50;45.50
46752;DHT22;32497;48.936;9.270;2022-09-02T09:34:59;21.70;44.60
46752;DHT22;32497;48.936;9.270;2022-09-02T09:40:00;21.70;43.60
46752;DHT22;32497;48.936;9.270;2022-09-02T09:45:16;21.80;43.50
46752;DHT22;32497;48.936;9.270;2022-09-02T09:50:18;21.70;43.10
46752;DHT22;32497;48.936;9.270;2022-09-02T09:55:20;22.10;42.10
46752;DHT22;32497;48.936;9.270;2022-09-02T10:00:27;22.20;42.00
46752;DHT22;32497;48.936;9.270;2022-09-02T10:05:32;22.50;40.70
46752;DHT22;32497;48.936;9.270;2022-09-02T10:10:34;22.60;41.20
46752;DHT22;32497;48.936;9.270;2022-09-02T10:15:43;22.50;40.10
46752;DHT22;32497;48.936;9.270;2022-09-02T10:20:51;22.70;39.90
46752;DHT22;32497;48.936;9.270;2022-09-02T10:26:02;23.00;39.20
46752;DHT22;32497;48.936;9.270;2022-09-02T10:31:08;23.00;37.40
46752;DHT22;32497;48.936;9.270;2022-09-02T10:36:16;23.10;37.70
46752;DHT22;32497;48.936;9.270;2022-09-02T10:41:32;23.20;37.10
46752;DHT22;32497;48.936;9.270;2022-09-02T10:46:49;23.50;38.20
46752;DHT22;32497;48.936;9.270;2022-09-02T10:51:58;23.70;37.60
46752;DHT22;32497;48.936;9.270;2022-09-02T10:57:05;24.00;35.70
46752;DHT22;32497;48.936;9.270;2022-09-02T11:02:14;24.00;35.40
46752;DHT22;32497;48.936;9.270;2022-09-02T11:07:21;23.70;37.30
46752;DHT22;32497;48.936;9.270;2022-09-02T11:12:29;23.90;35.30
46752;DHT22;32497;48.936;9.270;2022-09-02T11:17:36;24.20;35.20
46752;DHT22;32497;48.936;9.270;2022-09-02T11:22:44;24.50;34.90
46752;DHT22;32497;48.936;9.270;2022-09-02T11:27:54;24.40;34.30
46752;DHT22;32497;48.936;9.270;2022-09-02T11:33:10;24.50;33.70
46752;DHT22;32497;48.936;9.270;2022-09-02T11:38:28;24.70;33.90
46752;DHT22;32497;48.936;9.270;2022-09-02T11:43:34;25.00;34.10
46752;DHT22;32497;48.936;9.270;2022-09-02T11:54:12;25.30;33.40
46752;DHT22;32497;48.936;9.270;2022-09-02T11:59:23;25.70;34.00
46752;DHT22;32497;48.936;9.270;2022-09-02T12:04:44;26.20;34.20
46752;DHT22;32497;48.936;9.270;2022-09-02T12:09:46;26.40;33.60
46752;DHT22;32497;48.936;9.270;2022-09-02T12:15:10;26.40;32.50
46752;DHT22;32497;48.936;9.270;2022-09-02T12:25:56;27.00;30.20
46752;DHT22;32497;48.936;9.270;2022-09-02T12:31:15;27.50;29.40
46752;DHT22;32497;48.936;9.270;2022-09-02T12:36:45;27.70;28.50
46752;DHT22;32497;48.936;9.270;2022-09-02T12:41:53;27.40;30.20
46752;DHT22;32497;48.936;9.270;2022-09-02T12:47:01;27.80;30.60
46752;DHT22;32497;48.936;9.270;2022-09-02T12:52:05;28.20;28.80
46752;DHT22;32497;48.936;9.270;2022-09-02T12:57:10;28.40;28.70
46752;DHT22;32497;48.936;9.270;2022-09-02T13:02:29;28.20;27.60
46752;DHT22;32497;48.936;9.270;2022-09-02T13:08:06;28.30;28.40
46752;DHT22;32497;48.936;9.270;2022-09-02T13:13:43;28.20;27.80
46752;DHT22;32497;48.936;9.270;2022-09-02T13:24:58;28.70;27.40
46752;DHT22;32497;48.936;9.270;2022-09-02T13:30:12;29.30;27.10
46752;DHT22;32497;48.936;9.270;2022-09-02T13:35:19;29.00;26.60
46752;DHT22;32497;48.936;9.270;2022-09-02T13:40:25;29.20;29.20
46752;DHT22;32497;48.936;9.270;2022-09-02T13:45:29;29.70;27.50
46752;DHT22;32497;48.936;9.270;2022-09-02T13:50:32;30.20;26.80
46752;DHT22;32497;48.936;9.270;2022-09-02T13:55:34;29.60;26.00
46752;DHT22;32497;48.936;9.270;2022-09-02T14:00:38;28.70;28.40
46752;DHT22;32497;48.936;9.270;2022-09-02T14:05:42;29.20;28.10
46752;DHT22;32497;48.936;9.270;2022-09-02T14:10:44;29.10;26.00
46752;DHT22;32497;48.936;9.270;2022-09-02T14:15:47;28.30;26.50
46752;DHT22;32497;48.936;9.270;2022-09-02T14:20:55;28.40;27.10
46752;DHT22;32497;48.936;9.270;2022-09-02T14:25:58;28.70;27.10
46752;DHT22;32497;48.936;9.270;2022-09-02T14:31:03;29.20;28.10
46752;DHT22;32497;48.936;9.270;2022-09-02T14:36:06;29.40;26.80
46752;DHT22;32497;48.936;9.270;2022-09-02T14:41:11;28.60;27.70
46752;DHT22;32497;48.936;9.270;2022-09-02T14:46:23;29.20;28.40
46752;DHT22;32497;48.936;9.270;2022-09-02T14:51:31;30.10;27.80
46752;DHT22;32497;48.936;9.270;2022-09-02T14:56:48;29.80;27.20
46752;DHT22;32497;48.936;9.270;2022-09-02T15:01:52;30.00;28.00
46752;DHT22;32497;48.936;9.270;2022-09-02T15:06:53;30.30;27.40
46752;DHT22;32497;48.936;9.270;2022-09-02T15:11:54;30.40;27.30
46752;DHT22;32497;48.936;9.270;2022-09-02T15:16:57;30.00;27.30
46752;DHT22;32497;48.936;9.270;2022-09-02T15:21:58;29.50;29.20
46752;DHT22;32497;48.936;9.270;2022-09-02T15:26:59;28.90;28.60
46752;DHT22;32497;48.936;9.270;2022-09-02T15:32:02;28.70;28.70
46752;DHT22;32497;48.936;9.270;2022-09-02T15:37:03;27.90;30.90
46752;DHT22;32497;48.936;9.270;2022-09-02T15:42:04;28.00;28.90
46752;DHT22;32497;48.936;9.270;2022-09-02T15:47:06;27.80;29.90
46752;DHT22;32497;48.936;9.270;2022-09-02T15:52:07;27.80;29.40
46752;DHT22;32497;48.936;9.270;2022-09-02T15:57:08;26.90;31.00
46752;DHT22;32497;48.936;9.270;2022-09-02T16:02:11;26.20;31.80
46752;DHT22;32497;48.936;9.270;2022-09-02T16:07:12;25.70;33.80
46752;DHT22;32497;48.936;9.270;2022-09-02T16:12:13;25.70;34.40
46752;DHT22;32497;48.936;9.270;2022-09-02T16:17:15;25.10;35.60
46752;DHT22;32497;48.936;9.270;2022-09-02T16:22:16;24.70;35.50
46752;DHT22;32497;48.936;9.270;2022-09-02T16:27:17;24.30;36.90
46752;DHT22;32497;48.936;9.270;2022-09-02T16:32:19;23.90;37.20
46752;DHT22;32497;48.936;9.270;2022-09-02T16:37:20;23.70;37.70
46752;DHT22;32497;48.936;9.270;2022-09-02T16:42:21;23.70;37.10
46752;DHT22;32497;48.936;9.270;2022-09-02T16:47:24;23.50;37.40
46752;DHT22;32497;48.936;9.270;2022-09-02T16:52:25;23.40;37.70
46752;DHT22;32497;48.936;9.270;2022-09-02T16:57:26;23.20;37.30
46752;DHT22;32497;48.936;9.270;2022-09-02T17:02:28;23.10;38.10
46752;DHT22;32497;48.936;9.270;2022-09-02T17:07:29;23.20;40.70
46752;DHT22;32497;48.936;9.270;2022-09-02T17:12:30;23.00;40.10
46752;DHT22;32497;48.936;9.270;2022-09-02T17:17:33;22.90;39.20
46752;DHT22;32497;48.936;9.270;2022-09-02T17:22:34;22.90;41.00
46752;DHT22;32497;48.936;9.270;2022-09-02T17:27:35;23.00;42.10
46752;DHT22;32497;48.936;9.270;2022-09-02T17:32:37;22.70;41.70
46752;DHT22;32497;48.936;9.270;2022-09-02T17:37:38;22.60;42.20
46752;DHT22;32497;48.936;9.270;2022-09-02T17:42:39;22.40;41.30
46752;DHT22;32497;48.936;9.270;2022-09-02T17:47:42;22.20;43.30
46752;DHT22;32497;48.936;9.270;2022-09-02T17:52:43;22.00;42.50
46752;DHT22;32497;48.936;9.270;2022-09-02T17:57:49;21.90;43.50
46752;DHT22;32497;48.936;9.270;2022-09-02T18:03:17;21.70;44.80
46752;DHT22;32497;48.936;9.270;2022-09-02T18:08:30;21.40;43.20
46752;DHT22;32497;48.936;9.270;2022-09-02T18:13:39;21.10;43.80
46752;DHT22;32497;48.936;9.270;2022-09-02T18:18:48;20.80;43.40
46752;DHT22;32497;48.936;9.270;2022-09-02T18:23:57;20.60;45.20
46752;DHT22;32497;48.936;9.270;2022-09-02T18:29:13;20.50;46.60
46752;DHT22;32497;48.936;9.270;2022-09-02T18:34:35;20.40;46.60
46752;DHT22;32497;48.936;9.270;2022-09-02T18:39:59;20.30;44.80
46752;DHT22;32497;48.936;9.270;2022-09-02T18:45:08;20.40;46.60
46752;DHT22;32497;48.936;9.270;2022-09-02T18:50:19;20.20;45.50
46752;DHT22;32497;48.936;9.270;2022-09-02T18:55:26;20.20;46.10
46752;DHT22;32497;48.936;9.270;2022-09-02T19:00:31;20.20;46.60
46752;DHT22;32497;48.936;9.270;2022-09-02T19:05:36;20.10;46.60
46752;DHT22;32497;48.936;9.270;2022-09-02T19:10:37;20.10;47.20
46752;DHT22;32497;48.936;9.270;2022-09-02T19:15:38;19.80;48.40
46752;DHT22;32497;48.936;9.270;2022-09-02T19:20:41;19.70;48.50
46752;DHT22;32497;48.936;9.270;2022-09-02T19:25:42;19.40;47.60
46752;DHT22;32497;48.936;9.270;2022-09-02T19:30:44;19.30;48.40
46752;DHT22;32497;48.936;9.270;2022-09-02T19:35:48;19.20;48.80
46752;DHT22;32497;48.936;9.270;2022-09-02T19:40:50;19.00;48.70
46752;DHT22;32497;48.936;9.270;2022-09-02T19:45:51;18.90;49.70
46752;DHT22;32497;48.936;9.270;2022-09-02T19:50:54;18.90;50.60
46752;DHT22;32497;48.936;9.270;2022-09-02T19:55:55;18.80;49.60
46752;DHT22;32497;48.936;9.270;2022-09-02T20:00:56;18.80;50.20
46752;DHT22;32497;48.936;9.270;2022-09-02T20:05:59;18.80;50.20
46752;DHT22;32497;48.936;9.270;2022-09-02T20:11:01;18.90;50.20
46752;DHT22;32497;48.936;9.270;2022-09-02T20:16:03;18.90;49.50
46752;DHT22;32497;48.936;9.270;2022-09-02T20:21:06;18.90;50.20
46752;DHT22;32497;48.936;9.270;2022-09-02T20:26:16;18.90;49.40
46752;DHT22;32497;48.936;9.270;2022-09-02T20:31:28;18.90;49.60
46752;DHT22;32497;48.936;9.270;2022-09-02T20:36:39;18.90;50.30
46752;DHT22;32497;48.936;9.270;2022-09-02T20:41:50;18.80;49.40
46752;DHT22;32497;48.936;9.270;2022-09-02T20:47:05;18.70;50.20
46752;DHT22;32497;48.936;9.270;2022-09-02T20:52:13;18.60;50.90
46752;DHT22;32497;48.936;9.270;2022-09-02T20:57:25;18.50;50.30
46752;DHT22;32497;48.936;9.270;2022-09-02T21:02:32;18.40;50.40
46752;DHT22;32497;48.936;9.270;2022-09-02T21:07:40;18.40;50.60
46752;DHT22;32497;48.936;9.270;2022-09-02T21:12:46;18.40;51.00
46752;DHT22;32497;48.936;9.270;2022-09-02T21:17:53;18.50;51.10
46752;DHT22;32497;48.936;9.270;2022-09-02T21:22:59;18.40;50.60
46752;DHT22;32497;48.936;9.270;2022-09-02T21:28:04;18.40;51.30
46752;DHT22;32497;48.936;9.270;2022-09-02T21:33:09;18.50;51.00
46752;DHT22;32497;48.936;9.270;2022-09-02T21:38:15;18.50;51.20
46752;DHT22;32497;48.936;9.270;2022-09-02T21:43:28;18.30;50.60
46752;DHT22;32497;48.936;9.270;2022-09-02T21:48:35;17.90;52.00
46752;DHT22;32497;48.936;9.270;2022-09-02T21:53:48;17.80;52.00
46752;DHT22;32497;48.936;9.270;2022-09-02T21:59:10;17.60;52.60
46752;DHT22;32497;48.936;9.270;2022-09-02T22:04:28;17.50;52.90
46752;DHT22;32497;48.936;9.270;2022-09-02T22:09:32;17.40;53.00
46752;DHT22;32497;48.936;9.270;2022-09-02T22:14:39;17.40;53.10
46752;DHT22;32497;48.936;9.270;2022-09-02T22:19:43;17.20;53.60
46752;DHT22;32497;48.936;9.270;2022-09-02T22:24:45;17.20;54.00
46752;DHT22;32497;48.936;9.270;2022-09-02T22:29:49;17.20;55.00
46752;DHT22;32497;48.936;9.270;2022-09-02T22:34:58;17.10;54.10
46752;DHT22;32497;48.936;9.270;2022-09-02T22:40:05;17.10;54.60
46752;DHT22;32497;48.936;9.270;2022-09-02T22:45:09;17.10;54.80
46752;DHT22;32497;48.936;9.270;2022-09-02T22:50:17;16.90;55.00
46752;DHT22;32497;48.936;9.270;2022-09-02T22:55:29;16.90;54.70
46752;DHT22;32497;48.936;9.270;2022-09-02T23:00:38;16.90;54.70
46752;DHT22;32497;48.936;9.270;2022-09-02T23:05:52;16.70;55.30
46752;DHT22;32497;48.936;9.270;2022-09-02T23:10:57;16.70;55.70
46752;DHT22;32497;48.936;9.270;2022-09-02T23:16:09;16.60;55.70
46752;DHT22;32497;48.936;9.270;2022-09-02T23:21:22;16.40;56.50
46752;DHT22;32497;48.936;9.270;2022-09-02T23:26:33;16.50;57.30
46752;DHT22;32497;48.936;9.270;2022-09-02T23:31:49;16.40;57.70
46752;DHT22;32497;48.936;9.270;2022-09-02T23:37:01;16.40;56.50
46752;DHT22;32497;48.936;9.270;2022-09-02T23:42:05;16.40;57.50
46752;DHT22;32497;48.936;9.270;2022-09-02T23:47:15;16.20;56.80
46752;DHT22;32497;48.936;9.270;2022-09-02T23:52:24;16.40;56.60
46752;DHT22;32497;48.936;9.270;2022-09-02T23:57:37;16.20;56.50
